createdAt,value
2023-06-04T00:00:41.439Z,0.98
2023-06-04T00:03:24.217Z,0.95
2023-06-04T00:06:06.973Z,1.10
2023-06-04T00:08:49.612Z,0.75
2023-06-04T00:11:34.948Z,0.88
2023-06-04T00:14:17.705Z,0.90
2023-06-04T00:17:01.818Z,0.90
2023-06-04T00:19:44.545Z,0.63
2023-06-04T00:22:27.278Z,0.88
2023-06-04T00:25:10.227Z,0.80
2023-06-04T00:27:53.519Z,0.90
2023-06-04T00:30:36.140Z,0.73
2023-06-04T00:33:20.167Z,0.90
2023-06-04T00:36:02.996Z,1.08
2023-06-04T00:38:45.639Z,0.82
2023-06-04T00:41:28.334Z,0.90
2023-06-04T00:44:12.659Z,0.90
2023-06-04T00:46:55.789Z,1.00
2023-06-04T00:49:39.856Z,1.05
2023-06-04T00:52:22.548Z,1.10
2023-06-04T00:55:05.818Z,1.02
2023-06-04T00:57:48.541Z,1.23
2023-06-04T01:00:31.251Z,1.30
2023-06-04T01:03:16.154Z,1.38
2023-06-04T01:06:06.259Z,1.17
2023-06-04T01:08:50.514Z,1.45
2023-06-04T01:11:34.273Z,1.15
2023-06-04T01:14:19.417Z,1.10
2023-06-04T01:17:04.966Z,1.20
2023-06-04T01:20:00.831Z,1.10
2023-06-04T01:22:50.378Z,1.23
2023-06-04T01:25:34.604Z,1.13
2023-06-04T01:28:18.195Z,1.35
2023-06-04T01:31:02.804Z,1.35
2023-06-04T01:33:45.659Z,1.30
2023-06-04T01:36:28.291Z,1.20
2023-06-04T01:39:12.670Z,1.10
2023-06-04T01:41:55.359Z,1.30
2023-06-04T01:44:38.929Z,1.30
2023-06-04T01:47:21.905Z,1.20
2023-06-04T01:50:04.682Z,1.30
2023-06-04T01:52:47.336Z,1.42
2023-06-04T01:55:34.317Z,1.38
2023-06-04T01:58:18.868Z,1.33
2023-06-04T02:01:04.159Z,1.30
2023-06-04T02:03:48.241Z,1.20
2023-06-04T02:06:32.392Z,1.40
2023-06-04T02:09:15.369Z,1.30
2023-06-04T02:11:59.434Z,1.27
2023-06-04T02:14:42.871Z,1.48
2023-06-04T02:17:26.521Z,1.25
2023-06-04T02:20:11.101Z,1.30
2023-06-04T02:22:53.928Z,1.45
2023-06-04T02:25:36.576Z,1.55
2023-06-04T02:28:20.751Z,1.27
2023-06-04T02:31:03.407Z,1.65
2023-06-04T02:33:46.090Z,1.40
2023-06-04T02:36:30.986Z,1.33
2023-06-04T02:39:13.897Z,1.30
2023-06-04T02:41:56.803Z,1.30
2023-06-04T02:44:40.791Z,1.48
2023-06-04T02:47:23.476Z,1.40
2023-06-04T02:50:06.699Z,1.20
2023-06-04T02:52:49.383Z,1.10
2023-06-04T02:55:32.374Z,1.30
2023-06-04T02:58:15.162Z,1.48
2023-06-04T03:00:59.182Z,1.00
2023-06-04T03:03:41.915Z,1.25
2023-06-04T03:06:25.092Z,1.23
2023-06-04T03:09:08.084Z,1.02
2023-06-04T03:11:50.969Z,1.27
2023-06-04T03:14:37.688Z,1.05
2023-06-04T03:17:21.775Z,1.40
2023-06-04T03:20:05.855Z,1.27
2023-06-04T03:22:48.870Z,1.30
2023-06-04T03:25:31.679Z,1.20
2023-06-04T03:28:14.515Z,0.90
2023-06-04T03:30:58.237Z,1.50
2023-06-04T03:33:43.797Z,1.00
2023-06-04T03:36:32.617Z,1.23
2023-06-04T03:39:15.881Z,1.27
2023-06-04T03:41:58.579Z,1.15
2023-06-04T03:44:41.686Z,1.10
2023-06-04T03:47:24.339Z,1.05
2023-06-04T03:50:09.017Z,1.20
2023-06-04T03:52:53.166Z,0.98
2023-06-04T03:55:36.124Z,1.40
2023-06-04T03:58:22.452Z,1.13
2023-06-04T04:01:08.294Z,1.10
2023-06-04T04:03:51.916Z,1.00
2023-06-04T04:06:36.378Z,1.00
2023-06-04T04:09:19.190Z,1.10
2023-06-04T04:12:01.942Z,1.10
2023-06-04T04:14:46.296Z,1.00
2023-06-04T04:17:29.087Z,1.20
2023-06-04T04:20:12.671Z,1.00
2023-06-04T04:23:03.875Z,1.40
2023-06-04T04:25:48.331Z,0.90
2023-06-04T04:28:33.491Z,1.20
2023-06-04T04:31:18.792Z,1.10
2023-06-04T04:34:05.466Z,1.00
2023-06-04T04:36:53.871Z,1.00
2023-06-04T04:39:40.118Z,1.08
2023-06-04T04:42:23.163Z,1.10
2023-06-04T04:45:07.489Z,1.30
2023-06-04T04:47:51.877Z,1.20
2023-06-04T04:50:34.660Z,1.10
2023-06-04T04:53:18.418Z,0.82
2023-06-04T04:56:02.463Z,1.27
2023-06-04T04:58:47.007Z,1.23
2023-06-04T05:01:29.819Z,1.40
2023-06-04T05:04:12.804Z,1.30
2023-06-04T05:06:57.230Z,1.42
2023-06-04T05:09:42.758Z,1.35
2023-06-04T05:12:28.243Z,1.25
2023-06-04T05:15:13.664Z,1.70
2023-06-04T05:17:57.388Z,1.40
2023-06-04T05:20:42.632Z,1.20
2023-06-04T05:23:28.122Z,1.25
2023-06-04T05:26:10.878Z,1.50
2023-06-04T05:28:53.689Z,1.77
2023-06-04T05:31:41.058Z,1.58
2023-06-04T05:34:27.794Z,1.60
2023-06-04T05:37:14.182Z,1.33
2023-06-04T05:39:57.512Z,1.33
2023-06-04T05:42:40.248Z,1.35
2023-06-04T05:45:23.117Z,1.40
2023-06-04T05:48:07.629Z,1.30
2023-06-04T05:50:50.512Z,1.15
2023-06-04T05:53:33.332Z,1.48
2023-06-04T05:56:16.143Z,1.10
2023-06-04T05:59:00.162Z,1.30
2023-06-04T06:01:44.446Z,1.30
2023-06-04T06:04:28.762Z,1.38
2023-06-04T06:07:11.639Z,1.38
2023-06-04T06:09:54.434Z,1.20
2023-06-04T06:12:37.403Z,1.58
2023-06-04T06:15:20.309Z,1.55
2023-06-04T06:18:05.216Z,1.58
2023-06-04T06:20:49.211Z,1.55
2023-06-04T06:23:32.145Z,1.58
2023-06-04T06:26:14.990Z,1.92
2023-06-04T06:29:03.434Z,1.85
2023-06-04T06:31:47.897Z,1.70
2023-06-04T06:34:30.624Z,1.52
2023-06-04T06:37:14.610Z,1.80
2023-06-04T06:39:57.298Z,1.05
2023-06-04T06:42:39.940Z,1.27
2023-06-04T06:45:22.677Z,1.10
2023-06-04T06:48:06.174Z,1.25
2023-06-04T06:50:48.880Z,1.30
2023-06-04T06:53:32.957Z,1.30
2023-06-04T06:56:16.107Z,1.55
2023-06-04T06:58:58.779Z,1.20
2023-06-04T07:01:41.454Z,1.10
2023-06-04T07:04:24.179Z,0.95
2023-06-04T07:07:06.895Z,1.20
2023-06-04T07:09:51.171Z,1.00
2023-06-04T07:12:33.856Z,1.10
2023-06-04T07:15:16.610Z,0.90
2023-06-04T07:17:59.433Z,1.20
2023-06-04T07:20:42.349Z,1.25
2023-06-04T07:23:25.163Z,1.02
2023-06-04T07:26:09.697Z,1.30
2023-06-04T07:28:52.375Z,1.13
2023-06-04T07:31:35.118Z,1.20
2023-06-04T07:34:17.828Z,1.00
2023-06-04T07:37:00.458Z,1.35
2023-06-04T07:39:43.158Z,1.10
2023-06-04T07:42:27.213Z,1.00
2023-06-04T07:45:10.409Z,0.98
2023-06-04T07:47:53.141Z,1.10
2023-06-04T07:50:37.625Z,1.08
2023-06-04T07:53:21.617Z,1.00
2023-06-04T07:56:04.285Z,1.00
2023-06-04T07:58:48.971Z,1.00
2023-06-04T08:01:31.753Z,1.25
2023-06-04T08:04:14.584Z,1.10
2023-06-04T08:06:57.560Z,1.00
2023-06-04T08:09:40.231Z,1.20
2023-06-04T08:12:23.026Z,1.05
2023-06-04T08:15:08.427Z,1.17
2023-06-04T08:17:54.085Z,1.00
2023-06-04T08:20:36.865Z,0.80
2023-06-04T08:23:19.730Z,0.82
2023-06-04T08:26:02.756Z,0.68
2023-06-04T08:28:46.403Z,0.75
2023-06-04T08:31:30.495Z,0.70
2023-06-04T08:34:13.198Z,0.82
2023-06-04T08:36:55.879Z,0.50
2023-06-04T08:39:38.624Z,0.80
2023-06-04T08:42:24.357Z,0.77
2023-06-04T08:45:09.201Z,0.80
2023-06-04T08:47:53.587Z,0.90
2023-06-04T08:50:38.052Z,0.60
2023-06-04T08:53:20.877Z,0.73
2023-06-04T08:56:03.517Z,0.70
2023-06-04T08:58:46.532Z,0.63
2023-06-04T09:01:29.279Z,0.50
2023-06-04T09:04:13.820Z,0.70
2023-06-04T09:06:56.825Z,1.00
2023-06-04T09:09:40.332Z,0.50
2023-06-04T09:12:25.265Z,0.90
2023-06-04T09:15:08.367Z,0.73
2023-06-04T09:17:51.121Z,0.80
2023-06-04T09:20:35.487Z,0.60
2023-06-04T09:23:21.517Z,0.90
2023-06-04T09:26:10.690Z,0.60
2023-06-04T09:28:56.345Z,0.70
2023-06-04T09:31:40.921Z,0.85
2023-06-04T09:34:28.882Z,0.70
2023-06-04T09:37:15.799Z,0.95
2023-06-04T09:39:58.509Z,0.70
2023-06-04T09:42:44.795Z,1.00
2023-06-04T09:45:31.158Z,0.57
2023-06-04T09:48:20.766Z,0.70
2023-06-04T09:51:08.936Z,0.50
2023-06-04T09:53:59.573Z,0.98
2023-06-04T09:56:42.556Z,0.80
2023-06-04T09:59:25.437Z,0.98
2023-06-04T10:02:09.081Z,0.80
2023-06-04T10:04:55.086Z,0.70
2023-06-04T10:07:38.804Z,0.80
2023-06-04T10:10:25.339Z,0.75
2023-06-04T10:13:09.405Z,0.70
2023-06-04T10:15:52.630Z,0.70
2023-06-04T10:18:35.397Z,0.95
2023-06-04T10:21:19.562Z,0.90
2023-06-04T10:24:02.428Z,0.80
2023-06-04T10:26:46.606Z,0.80
2023-06-04T10:29:32.023Z,0.90
2023-06-04T10:32:15.112Z,0.63
2023-06-04T10:34:59.435Z,0.73
2023-06-04T10:37:42.121Z,0.82
2023-06-04T10:40:32.748Z,0.95
2023-06-04T10:43:18.076Z,0.77
2023-06-04T10:46:00.941Z,0.68
2023-06-04T10:48:50.570Z,0.75
2023-06-04T10:51:33.774Z,0.80
2023-06-04T10:54:24.228Z,0.88
2023-06-04T10:57:12.549Z,0.60
2023-06-04T10:59:57.336Z,0.77
2023-06-04T11:02:51.007Z,0.70
2023-06-04T11:05:37.674Z,0.70
2023-06-04T11:08:29.269Z,0.77
2023-06-04T11:11:12.841Z,0.82
2023-06-04T11:13:55.579Z,0.70
2023-06-04T11:16:39.751Z,0.88
2023-06-04T11:19:22.539Z,0.95
2023-06-04T11:22:05.645Z,0.90
2023-06-04T11:24:48.544Z,0.63
2023-06-04T11:27:36.938Z,0.80
2023-06-04T11:30:20.065Z,0.80
2023-06-04T11:33:04.833Z,0.77
2023-06-04T11:35:47.575Z,0.90
2023-06-04T11:38:30.337Z,0.73
2023-06-04T11:41:13.033Z,0.95
2023-06-04T11:43:55.931Z,0.85
2023-06-04T11:46:41.902Z,0.70
2023-06-04T11:49:27.323Z,0.95
2023-06-04T11:52:10.314Z,0.75
2023-06-04T11:54:53.520Z,0.90
2023-06-04T11:57:36.383Z,0.70
2023-06-04T12:00:20.230Z,0.73
2023-06-04T12:03:03.192Z,0.63
2023-06-04T12:05:47.557Z,0.73
2023-06-04T12:08:30.306Z,0.57
2023-06-04T12:11:22.661Z,0.63
2023-06-04T12:14:06.847Z,0.60
2023-06-04T12:16:56.689Z,0.70
2023-06-04T12:19:48.300Z,0.77
2023-06-04T12:22:32.578Z,0.70
2023-06-04T12:25:25.878Z,0.85
2023-06-04T12:28:18.958Z,0.80
2023-06-04T12:31:01.836Z,0.80
2023-06-04T12:33:44.578Z,0.70
2023-06-04T12:36:27.364Z,0.80
2023-06-04T12:39:11.573Z,0.63
2023-06-04T12:41:54.647Z,0.80
2023-06-04T12:44:37.466Z,0.70
2023-06-04T12:47:21.216Z,0.80
2023-06-04T12:50:04.111Z,0.80
2023-06-04T12:52:47.353Z,0.93
2023-06-04T12:55:31.435Z,1.00
2023-06-04T12:58:14.233Z,1.00
2023-06-04T13:00:57.031Z,0.80
2023-06-04T13:03:40.007Z,0.70
2023-06-04T13:06:22.908Z,0.65
2023-06-04T13:09:09.792Z,1.00
2023-06-04T13:11:53.845Z,0.90
2023-06-04T13:14:36.590Z,0.82
2023-06-04T13:17:22.523Z,0.98
2023-06-04T13:20:06.051Z,0.75
2023-06-04T13:22:49.380Z,0.95
2023-06-04T13:25:33.745Z,0.82
2023-06-04T13:28:18.613Z,0.90
2023-06-04T13:31:01.734Z,1.00
2023-06-04T13:33:44.602Z,1.00
2023-06-04T13:36:27.459Z,0.50
2023-06-04T13:39:10.201Z,0.80
2023-06-04T13:41:55.562Z,0.88
2023-06-04T13:44:39.651Z,0.80
2023-06-04T13:47:23.033Z,0.80
2023-06-04T13:50:06.338Z,0.98
2023-06-04T13:52:49.089Z,0.95
2023-06-04T13:55:32.589Z,0.90
2023-06-04T13:58:16.448Z,0.80
2023-06-04T14:01:00.729Z,0.88
2023-06-04T14:03:43.573Z,1.00
2023-06-04T14:06:26.518Z,0.90
2023-06-04T14:09:10.586Z,1.02
2023-06-04T14:11:53.440Z,0.77
2023-06-04T14:14:38.153Z,0.98
2023-06-04T14:17:22.340Z,0.90
2023-06-04T14:20:08.209Z,0.90
2023-06-04T14:22:50.926Z,0.90
2023-06-04T14:25:37.470Z,0.70
2023-06-04T14:28:22.013Z,1.10
2023-06-04T14:31:04.861Z,0.65
2023-06-04T14:33:49.075Z,0.98
2023-06-04T14:36:32.093Z,0.90
2023-06-04T14:39:14.869Z,0.93
2023-06-04T14:41:57.644Z,0.93
2023-06-04T14:44:40.334Z,1.00
2023-06-04T14:47:23.304Z,1.00
2023-06-04T14:50:08.112Z,0.95
2023-06-04T14:52:50.816Z,0.85
2023-06-04T14:55:35.991Z,1.00
2023-06-04T14:58:18.742Z,0.80
2023-06-04T15:01:04.493Z,0.88
2023-06-04T15:03:47.326Z,1.13
2023-06-04T15:06:31.512Z,0.98
2023-06-04T15:09:14.562Z,1.15
2023-06-04T15:11:57.651Z,0.88
2023-06-04T15:14:40.897Z,1.08
2023-06-04T15:17:23.800Z,0.82
2023-06-04T15:20:08.312Z,1.00
2023-06-04T15:22:52.413Z,1.00
2023-06-04T15:25:35.218Z,1.00
2023-06-04T15:28:17.959Z,0.90
2023-06-04T15:31:00.941Z,1.00
2023-06-04T15:33:43.707Z,1.10
2023-06-04T15:36:26.528Z,0.90
2023-06-04T15:39:10.725Z,0.90
2023-06-04T15:41:53.447Z,0.90
2023-06-04T15:44:36.275Z,1.20
2023-06-04T15:47:18.949Z,0.95
2023-06-04T15:50:01.834Z,0.95
2023-06-04T15:52:44.745Z,1.00
2023-06-04T15:55:28.908Z,1.05
2023-06-04T15:58:11.885Z,0.88
2023-06-04T16:00:54.635Z,1.00
2023-06-04T16:03:37.783Z,0.98
2023-06-04T16:06:20.612Z,1.33
2023-06-04T16:09:04.478Z,1.10
2023-06-04T16:11:48.612Z,0.90
2023-06-04T16:14:31.274Z,1.00
2023-06-04T16:17:14.062Z,1.00
2023-06-04T16:19:56.780Z,1.00
2023-06-04T16:22:39.506Z,1.00
2023-06-04T16:25:22.252Z,1.00
2023-06-04T16:28:06.661Z,0.80
2023-06-04T16:30:49.307Z,0.90
2023-06-04T16:33:31.984Z,0.90
2023-06-04T16:36:14.757Z,0.98
2023-06-04T16:38:57.438Z,0.65
2023-06-04T16:41:40.192Z,1.00
2023-06-04T16:44:24.297Z,0.75
2023-06-04T16:47:07.153Z,1.10
2023-06-04T16:49:49.931Z,0.88
2023-06-04T16:52:32.624Z,0.90
2023-06-04T16:55:16.770Z,1.08
2023-06-04T16:57:59.500Z,0.88
2023-06-04T17:00:43.582Z,0.90
2023-06-04T17:03:26.397Z,1.02
2023-06-04T17:06:09.539Z,0.88
2023-06-04T17:08:52.432Z,0.82
2023-06-04T17:11:36.636Z,0.70
2023-06-04T17:14:19.363Z,0.80
2023-06-04T17:17:03.718Z,0.90
2023-06-04T17:19:48.971Z,0.88
2023-06-04T17:22:31.674Z,1.10
2023-06-04T17:25:14.410Z,0.85
2023-06-04T17:28:00.168Z,0.75
2023-06-04T17:30:43.002Z,1.00
2023-06-04T17:33:27.068Z,1.08
2023-06-04T17:36:10.037Z,0.85
2023-06-04T17:38:53.078Z,0.82
2023-06-04T17:41:35.785Z,0.68
2023-06-04T17:44:18.465Z,0.82
2023-06-04T17:47:05.122Z,0.90
2023-06-04T17:49:50.326Z,0.90
2023-06-04T17:52:32.991Z,0.70
2023-06-04T17:55:16.091Z,0.70
2023-06-04T17:57:58.762Z,0.82
2023-06-04T18:00:41.550Z,0.93
2023-06-04T18:03:24.249Z,0.80
2023-06-04T18:06:08.545Z,0.93
2023-06-04T18:08:51.648Z,0.75
2023-06-04T18:11:34.272Z,0.70
2023-06-04T18:14:17.813Z,0.70
2023-06-04T18:17:00.539Z,0.75
2023-06-04T18:19:43.281Z,0.80
2023-06-04T18:22:27.401Z,0.90
2023-06-04T18:25:13.092Z,0.95
2023-06-04T18:27:55.759Z,0.82
2023-06-04T18:30:38.448Z,0.90
2023-06-04T18:33:23.864Z,0.75
2023-06-04T18:36:07.324Z,0.98
2023-06-04T18:38:51.546Z,0.88
2023-06-04T18:41:34.254Z,0.73
2023-06-04T18:44:17.010Z,0.90
2023-06-04T18:47:00.487Z,0.90
2023-06-04T18:49:43.259Z,0.90
2023-06-04T18:52:26.113Z,0.80
2023-06-04T18:55:10.996Z,0.88
2023-06-04T18:57:53.699Z,1.05
2023-06-04T19:00:36.744Z,0.80
2023-06-04T19:03:19.846Z,1.30
2023-06-04T19:06:02.721Z,1.02
2023-06-04T19:08:45.495Z,1.00
2023-06-04T19:11:30.040Z,1.15
2023-06-04T19:14:12.914Z,0.93
2023-06-04T19:16:55.683Z,1.10
2023-06-04T19:19:38.463Z,1.02
2023-06-04T19:22:21.414Z,1.27
2023-06-04T19:25:04.331Z,1.10
2023-06-04T19:27:49.306Z,1.20
2023-06-04T19:30:32.105Z,1.30
2023-06-04T19:33:14.809Z,1.05
2023-06-04T19:35:57.570Z,2.03
2023-06-04T19:38:42.557Z,1.20
2023-06-04T19:41:25.262Z,1.00
2023-06-04T19:44:09.373Z,1.10
2023-06-04T19:46:52.151Z,1.30
2023-06-04T19:49:34.886Z,1.25
2023-06-04T19:52:17.586Z,1.15
2023-06-04T19:55:00.276Z,1.20
2023-06-04T19:57:42.978Z,1.05
2023-06-04T20:00:27.051Z,1.10
2023-06-04T20:03:09.827Z,1.00
2023-06-04T20:05:52.614Z,1.25
2023-06-04T20:08:35.423Z,1.02
2023-06-04T20:11:18.103Z,1.10
2023-06-04T20:14:01.304Z,1.15
2023-06-04T20:16:45.524Z,1.05
2023-06-04T20:19:28.278Z,1.30
2023-06-04T20:22:11.101Z,1.20
2023-06-04T20:24:53.859Z,1.17
2023-06-04T20:27:36.580Z,1.10
2023-06-04T20:30:19.429Z,1.15
2023-06-04T20:33:03.819Z,1.23
2023-06-04T20:35:46.711Z,1.05
2023-06-04T20:38:29.375Z,1.33
2023-06-04T20:41:12.146Z,1.38
2023-06-04T20:43:55.444Z,1.27
2023-06-04T20:46:38.232Z,1.25
2023-06-04T20:49:22.384Z,1.33
2023-06-04T20:52:06.531Z,1.30
2023-06-04T20:54:49.311Z,1.50
2023-06-04T20:57:32.010Z,1.20
2023-06-04T21:00:14.732Z,1.13
2023-06-04T21:03:00.549Z,1.40
2023-06-04T21:05:44.705Z,1.10
2023-06-04T21:08:27.534Z,1.10
2023-06-04T21:11:10.551Z,1.08
2023-06-04T21:13:53.408Z,1.15
2023-06-04T21:16:36.130Z,1.40
2023-06-04T21:19:18.850Z,1.23
2023-06-04T21:22:02.917Z,1.10
2023-06-04T21:24:46.238Z,1.38
2023-06-04T21:27:29.061Z,1.23
2023-06-04T21:30:12.852Z,1.00
2023-06-04T21:32:55.783Z,1.38
2023-06-04T21:35:40.736Z,1.10
2023-06-04T21:38:24.839Z,1.30
2023-06-04T21:41:07.735Z,1.40
2023-06-04T21:43:50.841Z,1.30
2023-06-04T21:46:33.964Z,1.10
2023-06-04T21:49:19.542Z,1.10
2023-06-04T21:52:07.824Z,1.23
2023-06-04T21:54:57.612Z,1.45
2023-06-04T21:57:40.339Z,1.17
2023-06-04T22:00:24.762Z,1.10
2023-06-04T22:03:07.664Z,1.30
2023-06-04T22:05:50.466Z,1.40
2023-06-04T22:08:33.191Z,1.00
2023-06-04T22:11:17.318Z,1.23
2023-06-04T22:13:59.969Z,1.00
2023-06-04T22:16:42.654Z,1.00
2023-06-04T22:19:25.669Z,1.17
2023-06-04T22:22:10.117Z,1.30
2023-06-04T22:24:52.996Z,1.33
2023-06-04T22:27:37.037Z,1.30
2023-06-04T22:30:19.853Z,1.10
2023-06-04T22:33:02.674Z,1.25
2023-06-04T22:35:45.656Z,0.98
2023-06-04T22:38:28.386Z,1.20
2023-06-04T22:41:11.178Z,1.15
2023-06-04T22:43:55.357Z,1.02
2023-06-04T22:46:38.123Z,1.40
2023-06-04T22:49:20.860Z,1.17
2023-06-04T22:52:03.627Z,1.10
2023-06-04T22:54:46.719Z,1.33
2023-06-04T22:57:31.330Z,1.23
2023-06-04T23:00:16.048Z,1.35
2023-06-04T23:02:59.161Z,1.33
2023-06-04T23:05:42.281Z,1.05
2023-06-04T23:08:24.961Z,1.20
2023-06-04T23:11:07.828Z,1.10
2023-06-04T23:13:50.672Z,1.20
2023-06-04T23:16:34.745Z,1.35
2023-06-04T23:19:17.474Z,1.00
2023-06-04T23:22:00.166Z,1.10
2023-06-04T23:24:43.187Z,1.38
2023-06-04T23:27:25.997Z,1.30
2023-06-04T23:30:09.263Z,1.13
2023-06-04T23:32:53.347Z,1.00
2023-06-04T23:35:36.379Z,1.17
2023-06-04T23:38:19.063Z,1.30
2023-06-04T23:41:01.704Z,1.27
2023-06-04T23:43:44.330Z,1.40
2023-06-04T23:46:27.016Z,1.20
2023-06-04T23:49:11.096Z,1.27
2023-06-04T23:51:53.800Z,1.30
2023-06-04T23:54:36.465Z,1.20
2023-06-04T23:57:19.124Z,1.25
